createdAt,value
2022-09-23T00:02:16.686Z,47.50
2022-09-23T00:04:45.070Z,47.49
2022-09-23T00:07:13.418Z,47.49
2022-09-23T00:09:43.020Z,47.56
2022-09-23T00:12:11.421Z,47.55
2022-09-23T00:14:40.704Z,47.66
2022-09-23T00:17:09.015Z,47.63
2022-09-23T00:19:40.398Z,47.69
2022-09-23T00:22:09.024Z,47.62
2022-09-23T00:24:37.513Z,47.93
2022-09-23T00:27:07.374Z,47.60
2022-09-23T00:29:36.939Z,47.77
2022-09-23T00:32:06.066Z,47.73
2022-09-23T00:34:34.537Z,48.05
2022-09-23T00:37:02.782Z,47.98
2022-09-23T00:39:31.335Z,48.15
2022-09-23T00:41:59.687Z,48.08
2022-09-23T00:44:48.914Z,48.06
2022-09-23T00:47:25.574Z,48.26
2022-09-23T00:50:03.899Z,48.19
2022-09-23T00:52:33.291Z,48.31
2022-09-23T00:55:11.086Z,48.27
2022-09-23T00:57:41.443Z,48.20
2022-09-23T01:00:13.238Z,48.37
2022-09-23T01:02:41.636Z,48.33
2022-09-23T01:05:10.991Z,48.25
2022-09-23T01:07:39.326Z,48.29
2022-09-23T01:10:10.037Z,48.30
2022-09-23T01:12:54.776Z,48.44
2022-09-23T01:15:32.507Z,48.46
2022-09-23T01:18:12.429Z,48.40
2022-09-23T01:21:16.658Z,48.28
2022-09-23T01:24:55.575Z,48.17
2022-09-23T01:27:56.840Z,48.19
2022-09-23T01:30:47.498Z,48.46
2022-09-23T01:33:24.309Z,48.32
2022-09-23T01:36:06.199Z,48.51
2022-09-23T01:38:43.468Z,48.45
2022-09-23T01:41:26.670Z,48.59
2022-09-23T01:44:02.601Z,48.59
2022-09-23T01:46:38.894Z,48.50
2022-09-23T01:49:13.727Z,48.67
2022-09-23T01:51:47.391Z,48.65
2022-09-23T01:54:21.199Z,48.63
2022-09-23T01:56:55.111Z,48.83
2022-09-23T01:59:31.523Z,48.65
2022-09-23T02:02:06.877Z,48.79
2022-09-23T02:04:45.794Z,48.87
2022-09-23T02:07:21.408Z,48.88
2022-09-23T02:09:56.103Z,48.86
2022-09-23T02:12:28.564Z,48.91
2022-09-23T02:15:03.957Z,48.89
2022-09-23T02:17:40.084Z,49.03
2022-09-23T02:20:09.482Z,48.64
2022-09-23T02:22:42.672Z,48.85
2022-09-23T02:25:13.076Z,48.88
2022-09-23T02:27:48.956Z,48.91
2022-09-23T02:30:20.067Z,49.07
2022-09-23T02:32:56.555Z,49.10
2022-09-23T02:35:33.291Z,49.16
2022-09-23T02:38:17.730Z,49.06
2022-09-23T02:40:57.537Z,49.11
2022-09-23T02:43:35.468Z,49.02
2022-09-23T02:46:05.042Z,49.13
2022-09-23T02:48:40.666Z,49.10
2022-09-23T02:51:09.912Z,49.13
2022-09-23T02:53:38.597Z,48.93
2022-09-23T02:56:16.689Z,49.06
2022-09-23T02:58:46.946Z,49.10
2022-09-23T03:01:32.644Z,49.12
2022-09-23T03:04:14.858Z,49.22
2022-09-23T03:06:55.890Z,49.23
2022-09-23T03:09:30.750Z,49.18
2022-09-23T03:12:12.794Z,49.18
2022-09-23T03:14:49.934Z,49.27
2022-09-23T03:17:27.111Z,49.27
2022-09-23T03:20:04.051Z,49.44
2022-09-23T03:22:39.416Z,49.41
2022-09-23T03:25:13.250Z,49.46
2022-09-23T03:27:42.904Z,49.34
2022-09-23T03:30:12.980Z,49.37
2022-09-23T03:32:46.041Z,49.26
2022-09-23T03:35:16.321Z,49.59
2022-09-23T03:37:52.407Z,49.40
2022-09-23T03:40:26.310Z,49.54
2022-09-23T03:42:56.363Z,49.42
2022-09-23T03:45:29.381Z,49.32
2022-09-23T03:47:57.631Z,49.23
2022-09-23T03:50:27.222Z,49.53
2022-09-23T03:52:55.766Z,49.46
2022-09-23T03:55:24.068Z,49.32
2022-09-23T03:57:52.451Z,49.58
2022-09-23T04:00:20.849Z,49.56
2022-09-23T04:02:49.900Z,49.56
2022-09-23T04:05:18.377Z,49.53
2022-09-23T04:07:48.539Z,49.68
2022-09-23T04:10:16.896Z,49.72
2022-09-23T04:12:45.131Z,49.81
2022-09-23T04:15:13.458Z,49.70
2022-09-23T04:17:41.918Z,49.71
2022-09-23T04:20:10.959Z,49.68
2022-09-23T04:22:39.204Z,49.76
2022-09-23T04:25:10.498Z,49.66
2022-09-23T04:27:38.869Z,49.42
2022-09-23T04:30:08.542Z,49.80
2022-09-23T04:32:36.809Z,49.71
2022-09-23T04:35:06.727Z,49.51
2022-09-23T04:37:34.941Z,49.51
2022-09-23T04:40:03.876Z,49.54
2022-09-23T04:42:33.560Z,49.70
2022-09-23T04:45:01.810Z,49.64
2022-09-23T04:47:32.590Z,49.63
2022-09-23T04:50:00.847Z,49.65
2022-09-23T04:52:29.143Z,49.69
2022-09-23T04:54:57.386Z,49.70
2022-09-23T04:57:26.163Z,49.77
2022-09-23T04:59:57.408Z,49.77
2022-09-23T05:02:25.782Z,49.71
2022-09-23T05:04:54.382Z,49.29
2022-09-23T05:07:22.751Z,49.75
2022-09-23T05:09:50.973Z,49.72
2022-09-23T05:12:19.258Z,49.87
2022-09-23T05:14:47.443Z,49.95
2022-09-23T05:17:17.076Z,49.75
2022-09-23T05:19:45.433Z,49.94
2022-09-23T05:22:13.698Z,50.01
2022-09-23T05:24:42.071Z,49.95
2022-09-23T05:27:10.375Z,50.12
2022-09-23T05:29:39.211Z,50.30
2022-09-23T05:32:08.016Z,50.25
2022-09-23T05:34:37.657Z,50.11
2022-09-23T05:37:06.231Z,50.44
2022-09-23T05:39:34.526Z,50.33
2022-09-23T05:42:02.793Z,50.51
2022-09-23T05:44:31.061Z,50.62
2022-09-23T05:46:59.399Z,50.51
2022-09-23T05:49:48.265Z,50.85
2022-09-23T05:52:17.611Z,50.64
2022-09-23T05:54:45.882Z,50.99
2022-09-23T05:57:14.113Z,50.98
2022-09-23T05:59:43.352Z,51.06
2022-09-23T06:02:11.736Z,51.45
2022-09-23T06:04:40.115Z,51.31
2022-09-23T06:07:08.681Z,51.62
2022-09-23T06:09:38.303Z,51.65
2022-09-23T06:12:07.411Z,51.85
2022-09-23T06:14:35.711Z,51.95
2022-09-23T06:17:05.558Z,51.85
2022-09-23T06:19:33.749Z,52.08
2022-09-23T06:22:02.006Z,52.34
2022-09-23T06:24:31.585Z,52.19
2022-09-23T06:27:02.562Z,52.37
2022-09-23T06:29:33.170Z,52.35
2022-09-23T06:32:01.836Z,52.55
2022-09-23T06:34:31.966Z,52.79
2022-09-23T06:37:12.994Z,53.10
2022-09-23T06:39:46.674Z,53.23
2022-09-23T06:42:16.654Z,53.43
2022-09-23T06:44:44.999Z,53.59
2022-09-23T06:47:13.286Z,53.94
2022-09-23T06:49:41.563Z,53.98
2022-09-23T06:52:09.828Z,54.07
2022-09-23T06:54:38.105Z,54.22
2022-09-23T06:57:06.443Z,54.38
2022-09-23T06:59:36.055Z,54.69
2022-09-23T07:02:04.547Z,54.58
2022-09-23T07:04:32.906Z,54.68
2022-09-23T07:07:01.102Z,54.84
2022-09-23T07:09:29.360Z,54.83
2022-09-23T07:11:57.573Z,54.60
2022-09-23T07:14:26.070Z,54.61
2022-09-23T07:16:55.708Z,54.44
2022-09-23T07:19:26.147Z,54.40
2022-09-23T07:21:54.383Z,54.55
2022-09-23T07:24:22.990Z,54.47
2022-09-23T07:26:51.493Z,54.38
2022-09-23T07:29:19.697Z,54.14
2022-09-23T07:31:47.983Z,54.02
2022-09-23T07:34:17.633Z,53.90
2022-09-23T07:36:45.879Z,53.73
2022-09-23T07:39:14.961Z,53.67
2022-09-23T07:41:44.683Z,53.27
2022-09-23T07:44:13.419Z,52.90
2022-09-23T07:46:41.697Z,53.10
2022-09-23T07:49:10.492Z,52.79
2022-09-23T07:51:41.735Z,52.61
2022-09-23T07:54:14.549Z,52.30
2022-09-23T07:56:44.185Z,51.91
2022-09-23T07:59:15.391Z,51.72
2022-09-23T08:01:47.946Z,51.59
2022-09-23T08:04:18.918Z,51.12
2022-09-23T08:06:51.402Z,50.98
2022-09-23T08:09:22.222Z,49.99
2022-09-23T08:11:52.128Z,49.71
2022-09-23T08:14:22.330Z,48.87
2022-09-23T08:16:51.902Z,48.33
2022-09-23T08:19:20.604Z,48.06
2022-09-23T08:21:52.237Z,47.25
2022-09-23T08:24:24.227Z,46.75
2022-09-23T08:26:54.343Z,46.24
2022-09-23T08:29:24.363Z,45.57
2022-09-23T08:31:53.523Z,44.96
2022-09-23T08:34:23.721Z,44.56
2022-09-23T08:36:53.386Z,44.07
2022-09-23T08:39:23.146Z,43.56
2022-09-23T08:42:07.115Z,43.55
2022-09-23T08:44:50.917Z,43.74
2022-09-23T08:47:25.164Z,42.74
2022-09-23T08:50:01.636Z,42.41
2022-09-23T08:52:39.487Z,42.32
2022-09-23T08:55:13.602Z,42.34
2022-09-23T08:58:23.548Z,41.14
2022-09-23T09:00:47.848Z,41.09
2022-09-23T09:03:24.878Z,40.61
2022-09-23T09:05:54.778Z,40.39
2022-09-23T09:08:32.020Z,39.54
2022-09-23T09:11:01.386Z,39.31
2022-09-23T09:13:34.672Z,38.91
2022-09-23T09:17:01.346Z,39.69
2022-09-23T09:19:55.277Z,39.19
2022-09-23T09:22:44.022Z,38.42
2022-09-23T09:25:25.574Z,38.13
2022-09-23T09:27:55.139Z,37.71
2022-09-23T09:30:25.052Z,37.62
2022-09-23T09:33:00.677Z,37.09
2022-09-23T09:35:38.139Z,36.91
2022-09-23T09:38:06.826Z,36.35
2022-09-23T09:40:37.252Z,36.14
2022-09-23T09:43:05.623Z,35.86
2022-09-23T09:45:57.963Z,35.91
2022-09-23T09:48:37.811Z,35.94
2022-09-23T09:51:21.472Z,35.10
2022-09-23T09:53:52.116Z,34.27
2022-09-23T09:56:27.269Z,34.60
2022-09-23T09:59:00.928Z,34.12
2022-09-23T10:01:32.167Z,34.13
2022-09-23T10:04:04.675Z,33.39
2022-09-23T10:06:35.761Z,33.64
2022-09-23T10:09:15.984Z,33.18
2022-09-23T10:12:13.086Z,33.07
2022-09-23T10:14:41.347Z,32.74
2022-09-23T10:17:16.361Z,32.92
2022-09-23T10:19:49.389Z,32.26
2022-09-23T10:22:26.382Z,32.40
2022-09-23T10:24:56.288Z,32.29
2022-09-23T10:27:33.530Z,32.41
2022-09-23T10:30:05.299Z,32.18
2022-09-23T10:32:37.492Z,32.00
2022-09-23T10:35:16.921Z,31.82
2022-09-23T10:37:49.437Z,31.85
2022-09-23T10:40:40.213Z,31.97
2022-09-23T10:43:41.272Z,31.20
2022-09-23T10:46:39.618Z,30.79
2022-09-23T10:49:53.193Z,31.17
2022-09-23T10:52:39.341Z,31.20
2022-09-23T10:55:20.939Z,30.13
2022-09-23T10:58:33.229Z,28.64
2022-09-23T11:01:17.448Z,29.06
2022-09-23T11:04:16.469Z,29.59
2022-09-23T11:07:07.253Z,29.84
2022-09-23T11:09:51.126Z,29.23
2022-09-23T11:12:35.840Z,30.22
2022-09-23T11:15:27.805Z,29.82
2022-09-23T11:18:36.128Z,29.62
2022-09-23T11:21:32.869Z,29.57
2022-09-23T11:24:39.342Z,29.17
2022-09-23T11:27:20.269Z,28.35
2022-09-23T11:30:09.556Z,28.36
2022-09-23T11:33:14.231Z,28.55
2022-09-23T11:35:49.822Z,28.11
2022-09-23T11:38:25.970Z,27.56
2022-09-23T11:41:00.838Z,27.96
2022-09-23T11:43:33.896Z,26.88
2022-09-23T11:46:09.514Z,26.39
2022-09-23T11:48:47.394Z,27.01
2022-09-23T11:51:24.703Z,26.98
2022-09-23T11:53:56.978Z,27.11
2022-09-23T11:56:35.524Z,26.62
2022-09-23T11:59:13.492Z,25.85
2022-09-23T12:01:49.767Z,25.67
2022-09-23T12:04:29.704Z,25.65
2022-09-23T12:07:04.054Z,25.47
2022-09-23T12:09:57.805Z,25.46
2022-09-23T12:12:32.886Z,26.58
2022-09-23T12:15:06.255Z,25.72
2022-09-23T12:18:00.126Z,26.18
2022-09-23T12:20:58.974Z,25.69
2022-09-23T12:23:53.113Z,25.92
2022-09-23T12:26:24.644Z,25.99
2022-09-23T12:28:55.675Z,25.85
2022-09-23T12:31:30.685Z,26.53
2022-09-23T12:34:01.867Z,25.91
2022-09-23T12:36:35.742Z,25.15
2022-09-23T12:39:07.435Z,25.47
2022-09-23T12:41:40.212Z,25.56
2022-09-23T12:44:31.529Z,26.09
2022-09-23T12:47:37.338Z,26.47
2022-09-23T12:50:50.864Z,26.36
2022-09-23T12:53:55.239Z,26.53
2022-09-23T12:56:27.928Z,26.38
2022-09-23T12:59:22.127Z,25.79
2022-09-23T13:01:50.565Z,26.12
2022-09-23T13:05:02.588Z,26.35
2022-09-23T13:07:34.225Z,26.11
2022-09-23T13:10:15.056Z,26.27
2022-09-23T13:12:44.817Z,25.98
2022-09-23T13:15:28.778Z,26.57
2022-09-23T13:18:26.174Z,26.04
2022-09-23T13:20:56.879Z,25.00
2022-09-23T13:23:26.903Z,25.62
2022-09-23T13:26:00.752Z,25.92
2022-09-23T13:28:43.031Z,25.87
2022-09-23T13:31:17.481Z,26.97
2022-09-23T13:33:49.248Z,26.75
2022-09-23T13:36:21.148Z,26.29
2022-09-23T13:38:49.567Z,26.42
2022-09-23T13:41:23.108Z,25.83
2022-09-23T13:43:55.313Z,26.11
2022-09-23T13:46:27.048Z,26.82
2022-09-23T13:48:56.519Z,26.23
2022-09-23T13:51:28.328Z,26.47
2022-09-23T13:53:59.023Z,26.03
2022-09-23T13:56:31.671Z,26.44
2022-09-23T13:59:25.731Z,27.18
2022-09-23T14:02:06.045Z,26.77
2022-09-23T14:04:34.458Z,26.64
2022-09-23T14:07:03.834Z,26.40
2022-09-23T14:09:33.234Z,26.68
2022-09-23T14:12:06.046Z,27.23
2022-09-23T14:14:37.081Z,27.19
2022-09-23T14:17:06.595Z,27.64
2022-09-23T14:19:36.501Z,27.04
2022-09-23T14:22:08.176Z,27.32
2022-09-23T14:24:40.558Z,27.10
2022-09-23T14:27:17.565Z,27.24
2022-09-23T14:29:48.177Z,26.98
2022-09-23T14:32:21.133Z,27.39
2022-09-23T14:34:53.451Z,26.74
2022-09-23T14:37:47.573Z,27.18
2022-09-23T14:40:19.645Z,27.44
2022-09-23T14:42:52.909Z,28.08
2022-09-23T14:47:58.847Z,28.02
2022-09-23T14:50:47.193Z,28.19
2022-09-23T14:53:36.858Z,28.18
2022-09-23T14:56:20.939Z,27.25
2022-09-23T14:58:54.194Z,28.99
2022-09-23T15:01:36.566Z,28.72
2022-09-23T15:04:16.201Z,29.70
2022-09-23T15:06:50.699Z,29.71
2022-09-23T15:09:28.021Z,29.66
2022-09-23T15:12:02.041Z,30.02
2022-09-23T15:14:39.627Z,30.33
2022-09-23T15:17:25.890Z,31.10
2022-09-23T15:19:57.126Z,31.57
2022-09-23T15:22:26.139Z,31.90
2022-09-23T15:24:56.435Z,31.95
2022-09-23T15:27:30.885Z,32.14
2022-09-23T15:30:19.629Z,32.23
2022-09-23T15:32:48.904Z,32.38
2022-09-23T15:35:19.628Z,32.47
2022-09-23T15:37:50.082Z,32.82
2022-09-23T15:40:22.769Z,32.26
2022-09-23T15:42:52.669Z,32.80
2022-09-23T15:45:31.633Z,32.67
2022-09-23T15:48:04.180Z,32.73
2022-09-23T15:50:35.121Z,33.30
2022-09-23T15:53:03.580Z,33.30
2022-09-23T15:55:32.012Z,33.46
2022-09-23T15:58:00.584Z,33.14
2022-09-23T16:00:30.352Z,32.72
2022-09-23T16:02:58.693Z,32.60
2022-09-23T16:05:33.172Z,33.58
2022-09-23T16:08:07.900Z,33.14
2022-09-23T16:10:37.842Z,33.51
2022-09-23T16:13:11.710Z,32.92
2022-09-23T16:15:42.022Z,33.31
2022-09-23T16:18:11.875Z,33.75
2022-09-23T16:20:43.009Z,33.19
2022-09-23T16:23:34.702Z,33.09
2022-09-23T16:26:07.285Z,33.54
2022-09-23T16:28:35.921Z,33.95
2022-09-23T16:31:05.942Z,33.24
2022-09-23T16:33:34.301Z,33.75
2022-09-23T16:36:03.418Z,33.79
2022-09-23T16:38:32.822Z,33.90
2022-09-23T16:41:01.421Z,33.88
2022-09-23T16:43:31.669Z,33.98
2022-09-23T16:46:00.388Z,34.28
2022-09-23T16:48:30.114Z,34.64
2022-09-23T16:50:58.500Z,35.31
2022-09-23T16:53:30.585Z,34.99
2022-09-23T16:55:59.029Z,35.31
2022-09-23T16:58:27.350Z,35.70
2022-09-23T17:01:16.205Z,36.13
2022-09-23T17:03:47.247Z,36.45
2022-09-23T17:06:19.379Z,36.54
2022-09-23T17:08:49.356Z,36.50
2022-09-23T17:11:18.243Z,36.97
2022-09-23T17:13:47.586Z,37.28
2022-09-23T17:16:24.820Z,37.42
2022-09-23T17:18:56.499Z,37.56
2022-09-23T17:21:27.003Z,37.75
2022-09-23T17:23:55.907Z,38.01
2022-09-23T17:26:26.811Z,38.36
2022-09-23T17:28:57.521Z,38.47
2022-09-23T17:31:26.626Z,38.49
2022-09-23T17:33:56.619Z,38.59
2022-09-23T17:36:24.937Z,38.85
2022-09-23T17:38:54.477Z,38.91
2022-09-23T17:41:22.986Z,39.25
2022-09-23T17:43:56.674Z,39.16
2022-09-23T17:46:25.373Z,39.40
2022-09-23T17:48:55.751Z,39.23
2022-09-23T17:51:25.293Z,39.43
2022-09-23T17:53:53.850Z,39.73
2022-09-23T17:56:24.941Z,39.83
2022-09-23T17:58:54.719Z,39.95
2022-09-23T18:01:25.821Z,40.03
2022-09-23T18:03:58.225Z,40.06
2022-09-23T18:06:28.985Z,40.18
2022-09-23T18:08:57.339Z,40.32
2022-09-23T18:11:27.769Z,40.38
2022-09-23T18:13:58.439Z,40.58
2022-09-23T18:16:29.235Z,40.60
2022-09-23T18:19:01.545Z,40.64
2022-09-23T18:21:32.683Z,40.56
2022-09-23T18:26:50.687Z,40.64
2022-09-23T18:29:19.710Z,40.92
2022-09-23T18:31:49.280Z,40.91
2022-09-23T18:34:20.318Z,40.98
2022-09-23T18:36:48.822Z,41.16
2022-09-23T18:39:17.348Z,41.34
2022-09-23T18:41:45.713Z,41.47
2022-09-23T18:44:14.075Z,41.58
2022-09-23T18:46:42.846Z,41.54
2022-09-23T18:49:28.609Z,41.53
2022-09-23T18:51:59.508Z,41.66
2022-09-23T18:54:30.391Z,41.77
2022-09-23T18:56:59.349Z,41.96
2022-09-23T18:59:29.123Z,41.86
2022-09-23T19:01:58.310Z,41.96
2022-09-23T19:04:28.184Z,42.01
2022-09-23T19:06:58.853Z,42.10
2022-09-23T19:09:27.309Z,42.19
2022-09-23T19:11:55.671Z,42.41
2022-09-23T19:14:23.967Z,42.53
2022-09-23T19:16:52.323Z,42.57
2022-09-23T19:19:20.927Z,42.53
2022-09-23T19:21:49.313Z,42.63
2022-09-23T19:24:20.507Z,42.89
2022-09-23T19:26:50.378Z,42.82
2022-09-23T19:29:21.816Z,43.00
2022-09-23T19:31:51.080Z,43.20
2022-09-23T19:34:23.850Z,43.18
2022-09-23T19:36:52.882Z,43.45
2022-09-23T19:39:24.971Z,43.48
2022-09-23T19:41:55.784Z,43.53
2022-09-23T19:44:25.204Z,43.63
2022-09-23T19:46:56.733Z,43.71
2022-09-23T19:49:26.123Z,43.76
2022-09-23T19:51:56.664Z,43.94
2022-09-23T19:54:27.604Z,43.90
2022-09-23T19:56:56.456Z,44.01
2022-09-23T19:59:26.456Z,44.08
2022-09-23T20:01:55.294Z,44.03
2022-09-23T20:04:23.800Z,44.10
2022-09-23T20:06:52.178Z,44.12
2022-09-23T20:09:20.874Z,44.25
2022-09-23T20:11:51.034Z,44.08
2022-09-23T20:14:19.469Z,44.40
2022-09-23T20:16:48.082Z,44.41
2022-09-23T20:19:16.664Z,44.54
2022-09-23T20:21:45.023Z,44.70
2022-09-23T20:24:16.207Z,44.88
2022-09-23T20:27:01.714Z,44.83
2022-09-23T20:29:31.452Z,44.74
2022-09-23T20:31:59.769Z,44.68
2022-09-23T20:34:29.697Z,44.85
2022-09-23T20:36:59.232Z,44.92
2022-09-23T20:39:28.107Z,45.04
2022-09-23T20:41:56.574Z,45.10
2022-09-23T20:44:25.113Z,45.13
2022-09-23T20:46:54.981Z,45.01
2022-09-23T20:49:23.429Z,45.17
2022-09-23T20:51:52.123Z,45.43
2022-09-23T20:54:21.033Z,45.70
2022-09-23T20:56:49.351Z,45.53
2022-09-23T20:59:17.981Z,45.79
2022-09-23T21:01:46.757Z,45.74
2022-09-23T21:04:16.677Z,45.81
2022-09-23T21:06:45.047Z,45.91
2022-09-23T21:09:13.329Z,45.87
2022-09-23T21:11:41.805Z,45.93
2022-09-23T21:14:10.731Z,45.87
2022-09-23T21:16:39.492Z,46.19
2022-09-23T21:19:08.565Z,46.30
2022-09-23T21:21:38.950Z,46.51
2022-09-23T21:24:36.011Z,46.51
2022-09-23T21:26:56.011Z,46.37
2022-09-23T21:29:24.310Z,46.49
2022-09-23T21:31:52.763Z,46.45
2022-09-23T21:34:21.126Z,46.55
2022-09-23T21:36:50.836Z,46.66
2022-09-23T21:39:19.525Z,46.56
2022-09-23T21:41:47.884Z,46.55
2022-09-23T21:44:16.455Z,46.77
2022-09-23T21:46:44.884Z,46.98
2022-09-23T21:49:13.322Z,46.96
2022-09-23T21:51:42.565Z,46.98
2022-09-23T21:54:15.994Z,46.93
2022-09-23T21:56:45.445Z,47.05
2022-09-23T21:59:14.005Z,47.14
2022-09-23T22:01:45.212Z,47.23
2022-09-23T22:04:17.671Z,47.31
2022-09-23T22:06:48.876Z,47.47
2022-09-23T22:09:21.849Z,47.28
2022-09-23T22:12:09.845Z,47.53
2022-09-23T22:14:39.126Z,47.41
2022-09-23T22:17:11.347Z,47.75
2022-09-23T22:19:45.877Z,47.68
2022-09-23T22:22:18.111Z,47.65
2022-09-23T22:24:49.121Z,47.81
2022-09-23T22:27:19.996Z,47.83
2022-09-23T22:30:05.868Z,47.81
2022-09-23T22:32:43.679Z,47.73
2022-09-23T22:35:16.571Z,47.94
2022-09-23T22:37:45.489Z,47.83
2022-09-23T22:40:16.774Z,48.28
2022-09-23T22:42:45.840Z,48.21
2022-09-23T22:45:14.754Z,48.22
2022-09-23T22:47:45.566Z,48.24
2022-09-23T22:50:16.096Z,48.53
2022-09-23T22:52:44.503Z,48.46
2022-09-23T22:55:14.463Z,48.52
2022-09-23T22:57:42.837Z,48.38
2022-09-23T23:00:13.500Z,48.44
2022-09-23T23:02:42.514Z,48.41
2022-09-23T23:05:11.376Z,48.51
2022-09-23T23:07:40.557Z,48.43
2022-09-23T23:10:10.341Z,48.51
2022-09-23T23:12:41.670Z,48.74
2022-09-23T23:15:12.889Z,48.58
2022-09-23T23:17:43.683Z,48.58
2022-09-23T23:20:12.266Z,48.47
2022-09-23T23:22:40.615Z,48.66
2022-09-23T23:25:10.509Z,48.63
2022-09-23T23:27:40.252Z,48.68
2022-09-23T23:30:10.334Z,48.76
2022-09-23T23:32:38.857Z,48.92
2022-09-23T23:35:08.591Z,49.12
2022-09-23T23:37:36.990Z,48.96
2022-09-23T23:40:06.331Z,49.10
2022-09-23T23:42:34.778Z,49.23
2022-09-23T23:45:05.026Z,49.52
2022-09-23T23:47:33.395Z,49.49
2022-09-23T23:50:04.423Z,49.54
2022-09-23T23:52:32.770Z,49.49
2022-09-23T23:55:01.109Z,49.62
2022-09-23T23:57:29.519Z,49.59
2022-09-23T23:59:57.867Z,49.60
